sensor_id;sensor_type;location;lat;lon;timestamp;temperature;humidity
21928;DHT22;11128;51.096;17.190;2022-11-20T00:03:54;-5.50;99.90
21928;DHT22;11128;51.096;17.190;2022-11-20T00:08:57;-5.50;99.90
21928;DHT22;11128;51.096;17.190;2022-11-20T00:14:01;-5.20;99.90
21928;DHT22;11128;51.096;17.190;2022-11-20T00:24:04;-4.90;99.90
21928;DHT22;11128;51.096;17.190;2022-11-20T00:29:08;-4.90;99.90
21928;DHT22;11128;51.096;17.190;2022-11-20T00:34:11;-4.20;99.90
21928;DHT22;11128;51.096;17.190;2022-11-20T00:39:12;-5.10;99.90
21928;DHT22;11128;51.096;17.190;2022-11-20T00:44:13;-4.90;99.90
21928;DHT22;11128;51.096;17.190;2022-11-20T00:49:15;-5.30;99.90
21928;DHT22;11128;51.096;17.190;2022-11-20T00:54:16;-5.40;99.90
21928;DHT22;11128;51.096;17.190;2022-11-20T00:59:17;-5.40;99.90
21928;DHT22;11128;51.096;17.190;2022-11-20T01:09:20;-5.80;99.90
21928;DHT22;11128;51.096;17.190;2022-11-20T01:14:21;-5.70;99.90
21928;DHT22;11128;51.096;17.190;2022-11-20T01:19:23;-5.60;99.90
21928;DHT22;11128;51.096;17.190;2022-11-20T01:24:24;-5.50;99.90
21928;DHT22;11128;51.096;17.190;2022-11-20T01:29:26;-5.20;99.90
21928;DHT22;11128;51.096;17.190;2022-11-20T01:39:28;-5.00;99.90
21928;DHT22;11128;51.096;17.190;2022-11-20T01:44:50;-5.30;99.90
21928;DHT22;11128;51.096;17.190;2022-11-20T01:55:29;-5.20;99.90
21928;DHT22;11128;51.096;17.190;2022-11-20T02:00:31;-5.20;99.90
21928;DHT22;11128;51.096;17.190;2022-11-20T02:10:58;-5.10;99.90
21928;DHT22;11128;51.096;17.190;2022-11-20T02:15:59;-5.10;99.90
21928;DHT22;11128;51.096;17.190;2022-11-20T02:21:20;-5.30;99.90
21928;DHT22;11128;51.096;17.190;2022-11-20T02:26:24;-5.10;99.90
21928;DHT22;11128;51.096;17.190;2022-11-20T02:31:27;-5.20;99.90
21928;DHT22;11128;51.096;17.190;2022-11-20T02:36:30;-5.20;99.90
21928;DHT22;11128;51.096;17.190;2022-11-20T02:41:34;-5.00;99.90
21928;DHT22;11128;51.096;17.190;2022-11-20T02:46:36;-5.40;99.90
21928;DHT22;11128;51.096;17.190;2022-11-20T02:56:39;-5.50;99.90
21928;DHT22;11128;51.096;17.190;2022-11-20T03:01:40;-5.70;99.90
21928;DHT22;11128;51.096;17.190;2022-11-20T03:06:42;-5.90;99.90
21928;DHT22;11128;51.096;17.190;2022-11-20T03:16:45;-6.00;99.90
21928;DHT22;11128;51.096;17.190;2022-11-20T03:21:46;-6.30;99.90
21928;DHT22;11128;51.096;17.190;2022-11-20T03:31:48;-6.10;99.90
21928;DHT22;11128;51.096;17.190;2022-11-20T03:46:52;-6.40;99.90
21928;DHT22;11128;51.096;17.190;2022-11-20T03:56:55;-6.30;99.90
21928;DHT22;11128;51.096;17.190;2022-11-20T04:01:56;-6.30;99.90
21928;DHT22;11128;51.096;17.190;2022-11-20T04:06:58;-6.40;99.90
21928;DHT22;11128;51.096;17.190;2022-11-20T04:11:59;-6.40;99.90
21928;DHT22;11128;51.096;17.190;2022-11-20T04:22:02;-6.70;99.90
21928;DHT22;11128;51.096;17.190;2022-11-20T04:27:03;-6.60;99.90
21928;DHT22;11128;51.096;17.190;2022-11-20T04:32:04;-5.90;99.90
21928;DHT22;11128;51.096;17.190;2022-11-20T04:42:08;-6.70;99.90
21928;DHT22;11128;51.096;17.190;2022-11-20T04:47:28;-6.60;99.90
21928;DHT22;11128;51.096;17.190;2022-11-20T04:52:30;-6.60;99.90
21928;DHT22;11128;51.096;17.190;2022-11-20T05:02:33;-6.80;99.90
21928;DHT22;11128;51.096;17.190;2022-11-20T05:22:41;-6.80;99.90
21928;DHT22;11128;51.096;17.190;2022-11-20T05:27:42;-6.70;99.90
21928;DHT22;11128;51.096;17.190;2022-11-20T05:42:46;-6.60;99.90
21928;DHT22;11128;51.096;17.190;2022-11-20T05:52:48;-6.80;99.90
21928;DHT22;11128;51.096;17.190;2022-11-20T05:57:52;-6.50;99.90
21928;DHT22;11128;51.096;17.190;2022-11-20T06:02:54;-6.40;99.90
21928;DHT22;11128;51.096;17.190;2022-11-20T06:07:55;-6.50;99.90
21928;DHT22;11128;51.096;17.190;2022-11-20T06:12:57;-6.50;99.90
21928;DHT22;11128;51.096;17.190;2022-11-20T06:23:00;-6.70;99.90
21928;DHT22;11128;51.096;17.190;2022-11-20T06:28:02;-6.50;99.90
21928;DHT22;11128;51.096;17.190;2022-11-20T06:43:08;-6.50;99.90
21928;DHT22;11128;51.096;17.190;2022-11-20T06:53:11;-6.40;99.90
21928;DHT22;11128;51.096;17.190;2022-11-20T06:58:13;-6.50;99.90
21928;DHT22;11128;51.096;17.190;2022-11-20T07:03:15;-6.40;99.90
21928;DHT22;11128;51.096;17.190;2022-11-20T07:08:16;-6.20;99.90
21928;DHT22;11128;51.096;17.190;2022-11-20T07:18:19;-5.70;99.90
21928;DHT22;11128;51.096;17.190;2022-11-20T07:23:20;-5.30;99.90
21928;DHT22;11128;51.096;17.190;2022-11-20T07:28:22;-5.50;99.90
21928;DHT22;11128;51.096;17.190;2022-11-20T07:33:23;-4.70;99.90
21928;DHT22;11128;51.096;17.190;2022-11-20T07:38:24;-4.70;99.90
21928;DHT22;11128;51.096;17.190;2022-11-20T07:43:25;-4.10;99.90
21928;DHT22;11128;51.096;17.190;2022-11-20T07:53:29;-3.50;99.90
21928;DHT22;11128;51.096;17.190;2022-11-20T07:58:30;-3.40;99.90
21928;DHT22;11128;51.096;17.190;2022-11-20T08:03:34;-3.00;99.90
21928;DHT22;11128;51.096;17.190;2022-11-20T08:13:37;-2.40;99.90
21928;DHT22;11128;51.096;17.190;2022-11-20T08:18:57;-2.10;99.90
21928;DHT22;11128;51.096;17.190;2022-11-20T08:29:00;-1.40;99.90
21928;DHT22;11128;51.096;17.190;2022-11-20T08:34:02;-0.90;99.90
21928;DHT22;11128;51.096;17.190;2022-11-20T08:39:03;-1.10;99.90
21928;DHT22;11128;51.096;17.190;2022-11-20T08:44:07;-0.30;99.90
21928;DHT22;11128;51.096;17.190;2022-11-20T08:49:11;-0.20;99.90
21928;DHT22;11128;51.096;17.190;2022-11-20T08:54:13;0.00;99.90
21928;DHT22;11128;51.096;17.190;2022-11-20T08:59:14;0.50;99.90
21928;DHT22;11128;51.096;17.190;2022-11-20T09:04:15;0.80;99.90
21928;DHT22;11128;51.096;17.190;2022-11-20T09:09:17;2.00;99.90
21928;DHT22;11128;51.096;17.190;2022-11-20T09:14:19;2.20;94.50
21928;DHT22;11128;51.096;17.190;2022-11-20T09:19:23;2.60;95.30
21928;DHT22;11128;51.096;17.190;2022-11-20T09:24:26;2.30;84.00
21928;DHT22;11128;51.096;17.190;2022-11-20T09:29:27;3.20;79.30
21928;DHT22;11128;51.096;17.190;2022-11-20T09:34:29;2.60;80.50
21928;DHT22;11128;51.096;17.190;2022-11-20T09:39:30;3.40;66.50
21928;DHT22;11128;51.096;17.190;2022-11-20T09:55:08;3.60;60.70
21928;DHT22;11128;51.096;17.190;2022-11-20T10:00:13;3.90;55.20
21928;DHT22;11128;51.096;17.190;2022-11-20T10:05:30;3.70;50.40
21928;DHT22;11128;51.096;17.190;2022-11-20T10:10:40;3.90;50.00
21928;DHT22;11128;51.096;17.190;2022-11-20T10:32:23;4.90;46.50
21928;DHT22;11128;51.096;17.190;2022-11-20T10:37:29;4.70;44.70
21928;DHT22;11128;51.096;17.190;2022-11-20T10:47:38;4.60;45.10
21928;DHT22;11128;51.096;17.190;2022-11-20T10:58:25;4.40;48.20
21928;DHT22;11128;51.096;17.190;2022-11-20T11:03:28;4.80;47.60
21928;DHT22;11128;51.096;17.190;2022-11-20T11:08:36;5.20;43.90
21928;DHT22;11128;51.096;17.190;2022-11-20T11:13:38;5.80;43.60
21928;DHT22;11128;51.096;17.190;2022-11-20T11:18:40;5.80;44.30
21928;DHT22;11128;51.096;17.190;2022-11-20T11:23:43;5.70;42.30
21928;DHT22;11128;51.096;17.190;2022-11-20T11:34:14;5.40;40.10
21928;DHT22;11128;51.096;17.190;2022-11-20T11:39:18;5.70;41.90
21928;DHT22;11128;51.096;17.190;2022-11-20T11:49:44;6.30;38.60
21928;DHT22;11128;51.096;17.190;2022-11-20T11:54:59;6.60;37.40
21928;DHT22;11128;51.096;17.190;2022-11-20T12:05:32;6.90;36.10
21928;DHT22;11128;51.096;17.190;2022-11-20T12:16:01;7.60;31.80
21928;DHT22;11128;51.096;17.190;2022-11-20T12:26:45;7.90;30.80
21928;DHT22;11128;51.096;17.190;2022-11-20T12:32:35;7.90;30.30
21928;DHT22;11128;51.096;17.190;2022-11-20T12:37:38;7.70;29.90
21928;DHT22;11128;51.096;17.190;2022-11-20T12:43:09;8.20;30.40
21928;DHT22;11128;51.096;17.190;2022-11-20T12:59:46;7.20;32.50
21928;DHT22;11128;51.096;17.190;2022-11-20T13:20:49;7.90;28.20
21928;DHT22;11128;51.096;17.190;2022-11-20T13:26:13;7.60;29.30
21928;DHT22;11128;51.096;17.190;2022-11-20T13:31:29;7.40;29.00
21928;DHT22;11128;51.096;17.190;2022-11-20T13:36:32;7.50;30.40
21928;DHT22;11128;51.096;17.190;2022-11-20T13:41:38;6.80;29.50
21928;DHT22;11128;51.096;17.190;2022-11-20T13:46:46;6.40;31.60
21928;DHT22;11128;51.096;17.190;2022-11-20T13:51:50;5.60;34.30
21928;DHT22;11128;51.096;17.190;2022-11-20T14:02:16;5.20;36.90
21928;DHT22;11128;51.096;17.190;2022-11-20T14:07:20;4.80;39.70
21928;DHT22;11128;51.096;17.190;2022-11-20T14:12:27;4.10;43.30
21928;DHT22;11128;51.096;17.190;2022-11-20T14:17:34;4.10;50.70
21928;DHT22;11128;51.096;17.190;2022-11-20T14:22:36;3.40;65.70
21928;DHT22;11128;51.096;17.190;2022-11-20T14:27:39;3.00;86.50
21928;DHT22;11128;51.096;17.190;2022-11-20T14:32:42;2.70;94.80
21928;DHT22;11128;51.096;17.190;2022-11-20T14:37:45;2.60;99.00
21928;DHT22;11128;51.096;17.190;2022-11-20T14:42:46;2.00;99.90
21928;DHT22;11128;51.096;17.190;2022-11-20T14:47:48;1.60;99.90
21928;DHT22;11128;51.096;17.190;2022-11-20T14:52:52;1.40;99.90
21928;DHT22;11128;51.096;17.190;2022-11-20T14:58:01;1.30;99.90
21928;DHT22;11128;51.096;17.190;2022-11-20T15:03:15;0.80;99.90
21928;DHT22;11128;51.096;17.190;2022-11-20T15:08:17;0.60;99.90
21928;DHT22;11128;51.096;17.190;2022-11-20T15:13:34;0.30;99.90
21928;DHT22;11128;51.096;17.190;2022-11-20T15:18:39;0.10;99.90
21928;DHT22;11128;51.096;17.190;2022-11-20T15:23:44;0.60;99.90
21928;DHT22;11128;51.096;17.190;2022-11-20T15:28:47;0.30;99.90
21928;DHT22;11128;51.096;17.190;2022-11-20T15:33:49;0.40;99.90
21928;DHT22;11128;51.096;17.190;2022-11-20T15:38:50;0.30;99.90
21928;DHT22;11128;51.096;17.190;2022-11-20T15:43:52;-0.60;99.90
21928;DHT22;11128;51.096;17.190;2022-11-20T15:48:57;-0.60;99.90
21928;DHT22;11128;51.096;17.190;2022-11-20T15:54:01;-0.50;99.90
21928;DHT22;11128;51.096;17.190;2022-11-20T15:59:04;-0.50;99.90
21928;DHT22;11128;51.096;17.190;2022-11-20T16:04:13;-0.20;99.90
21928;DHT22;11128;51.096;17.190;2022-11-20T16:09:15;-0.50;99.90
21928;DHT22;11128;51.096;17.190;2022-11-20T16:14:16;-0.60;99.90
21928;DHT22;11128;51.096;17.190;2022-11-20T16:19:36;-0.10;99.90
21928;DHT22;11128;51.096;17.190;2022-11-20T16:24:37;-0.40;99.90
21928;DHT22;11128;51.096;17.190;2022-11-20T16:29:38;-1.00;99.90
21928;DHT22;11128;51.096;17.190;2022-11-20T16:34:39;-1.20;99.90
21928;DHT22;11128;51.096;17.190;2022-11-20T16:39:41;-1.30;99.90
21928;DHT22;11128;51.096;17.190;2022-11-20T16:44:45;-1.30;99.90
21928;DHT22;11128;51.096;17.190;2022-11-20T16:49:47;-1.50;99.90
21928;DHT22;11128;51.096;17.190;2022-11-20T16:54:48;-1.60;99.90
21928;DHT22;11128;51.096;17.190;2022-11-20T16:59:49;-0.60;99.90
21928;DHT22;11128;51.096;17.190;2022-11-20T17:04:54;-1.80;99.90
21928;DHT22;11128;51.096;17.190;2022-11-20T17:09:55;-1.70;99.90
21928;DHT22;11128;51.096;17.190;2022-11-20T17:14:58;-0.60;99.90
21928;DHT22;11128;51.096;17.190;2022-11-20T17:19:59;-1.90;99.90
21928;DHT22;11128;51.096;17.190;2022-11-20T17:25:01;-1.90;99.90
21928;DHT22;11128;51.096;17.190;2022-11-20T17:30:03;-1.90;99.90
21928;DHT22;11128;51.096;17.190;2022-11-20T17:35:05;-1.70;99.90
21928;DHT22;11128;51.096;17.190;2022-11-20T17:40:06;-1.60;99.90
21928;DHT22;11128;51.096;17.190;2022-11-20T17:45:08;-1.70;99.90
21928;DHT22;11128;51.096;17.190;2022-11-20T17:50:09;-1.60;99.90
21928;DHT22;11128;51.096;17.190;2022-11-20T17:55:11;-1.50;99.90
21928;DHT22;11128;51.096;17.190;2022-11-20T18:00:13;0.30;99.90
21928;DHT22;11128;51.096;17.190;2022-11-20T18:05:16;-1.40;99.90
21928;DHT22;11128;51.096;17.190;2022-11-20T18:10:18;-1.30;99.90
21928;DHT22;11128;51.096;17.190;2022-11-20T18:15:19;-1.30;99.90
21928;DHT22;11128;51.096;17.190;2022-11-20T18:20:20;-1.30;99.90
21928;DHT22;11128;51.096;17.190;2022-11-20T18:25:22;-1.50;99.90
21928;DHT22;11128;51.096;17.190;2022-11-20T18:30:24;-1.50;99.90
21928;DHT22;11128;51.096;17.190;2022-11-20T18:35:25;-1.60;99.90
21928;DHT22;11128;51.096;17.190;2022-11-20T18:40:27;-1.60;99.90
21928;DHT22;11128;51.096;17.190;2022-11-20T18:45:28;-1.80;99.90
21928;DHT22;11128;51.096;17.190;2022-11-20T18:50:30;-2.00;99.90
21928;DHT22;11128;51.096;17.190;2022-11-20T18:55:31;-2.00;99.90
21928;DHT22;11128;51.096;17.190;2022-11-20T19:00:33;-2.00;99.90
21928;DHT22;11128;51.096;17.190;2022-11-20T19:05:35;-2.00;99.90
21928;DHT22;11128;51.096;17.190;2022-11-20T19:10:37;-2.00;99.90
21928;DHT22;11128;51.096;17.190;2022-11-20T19:15:38;-1.90;99.90
21928;DHT22;11128;51.096;17.190;2022-11-20T19:20:40;-1.90;99.90
21928;DHT22;11128;51.096;17.190;2022-11-20T19:25:41;-2.10;99.90
21928;DHT22;11128;51.096;17.190;2022-11-20T19:30:43;-2.10;99.90
21928;DHT22;11128;51.096;17.190;2022-11-20T19:35:45;-2.10;99.90
21928;DHT22;11128;51.096;17.190;2022-11-20T19:40:47;-2.00;99.90
21928;DHT22;11128;51.096;17.190;2022-11-20T19:45:48;-2.00;99.90
21928;DHT22;11128;51.096;17.190;2022-11-20T19:50:50;-1.80;99.90
21928;DHT22;11128;51.096;17.190;2022-11-20T19:55:55;-1.70;99.90
21928;DHT22;11128;51.096;17.190;2022-11-20T20:01:03;-1.70;99.90
21928;DHT22;11128;51.096;17.190;2022-11-20T20:06:08;-1.70;99.90
21928;DHT22;11128;51.096;17.190;2022-11-20T20:11:17;-1.60;99.90
21928;DHT22;11128;51.096;17.190;2022-11-20T20:16:21;-1.60;99.90
21928;DHT22;11128;51.096;17.190;2022-11-20T20:21:24;-1.60;99.90
21928;DHT22;11128;51.096;17.190;2022-11-20T20:26:27;-1.60;99.90
21928;DHT22;11128;51.096;17.190;2022-11-20T20:31:31;-0.40;99.90
21928;DHT22;11128;51.096;17.190;2022-11-20T20:36:33;-1.40;99.90
21928;DHT22;11128;51.096;17.190;2022-11-20T20:41:34;-1.30;99.90
21928;DHT22;11128;51.096;17.190;2022-11-20T20:46:36;-1.30;99.90
21928;DHT22;11128;51.096;17.190;2022-11-20T20:51:37;-1.30;99.90
21928;DHT22;11128;51.096;17.190;2022-11-20T20:56:39;-1.40;99.90
21928;DHT22;11128;51.096;17.190;2022-11-20T21:01:40;-1.50;99.90
21928;DHT22;11128;51.096;17.190;2022-11-20T21:06:42;-1.70;99.90
21928;DHT22;11128;51.096;17.190;2022-11-20T21:11:43;-1.80;99.90
21928;DHT22;11128;51.096;17.190;2022-11-20T21:16:44;-1.90;99.90
21928;DHT22;11128;51.096;17.190;2022-11-20T21:21:46;-2.10;99.90
21928;DHT22;11128;51.096;17.190;2022-11-20T21:27:01;-1.20;99.90
21928;DHT22;11128;51.096;17.190;2022-11-20T21:32:03;-2.40;99.90
21928;DHT22;11128;51.096;17.190;2022-11-20T21:37:04;-2.60;99.90
21928;DHT22;11128;51.096;17.190;2022-11-20T21:42:05;-2.70;99.90
21928;DHT22;11128;51.096;17.190;2022-11-20T21:47:07;-2.80;99.90
21928;DHT22;11128;51.096;17.190;2022-11-20T21:52:08;-2.90;99.90
21928;DHT22;11128;51.096;17.190;2022-11-20T21:57:10;-2.90;99.90
21928;DHT22;11128;51.096;17.190;2022-11-20T22:02:11;-2.90;99.90
21928;DHT22;11128;51.096;17.190;2022-11-20T22:07:13;-3.10;99.90
21928;DHT22;11128;51.096;17.190;2022-11-20T22:12:14;-3.20;99.90
21928;DHT22;11128;51.096;17.190;2022-11-20T22:17:15;-3.30;99.90
21928;DHT22;11128;51.096;17.190;2022-11-20T22:22:17;-3.50;99.90
21928;DHT22;11128;51.096;17.190;2022-11-20T22:27:18;-3.60;99.90
21928;DHT22;11128;51.096;17.190;2022-11-20T22:32:20;-3.70;99.90
21928;DHT22;11128;51.096;17.190;2022-11-20T22:37:21;-3.80;99.90
21928;DHT22;11128;51.096;17.190;2022-11-20T22:42:22;-3.90;99.90
21928;DHT22;11128;51.096;17.190;2022-11-20T22:47:23;-4.00;99.90
21928;DHT22;11128;51.096;17.190;2022-11-20T22:52:25;-4.10;99.90
21928;DHT22;11128;51.096;17.190;2022-11-20T22:57:26;-4.20;99.90
21928;DHT22;11128;51.096;17.190;2022-11-20T23:02:28;-4.30;99.90
21928;DHT22;11128;51.096;17.190;2022-11-20T23:07:29;-4.30;99.90
21928;DHT22;11128;51.096;17.190;2022-11-20T23:12:32;-4.40;99.90
21928;DHT22;11128;51.096;17.190;2022-11-20T23:17:34;-4.40;99.90
21928;DHT22;11128;51.096;17.190;2022-11-20T23:22:36;-3.90;99.90
21928;DHT22;11128;51.096;17.190;2022-11-20T23:27:37;-4.60;99.90
21928;DHT22;11128;51.096;17.190;2022-11-20T23:32:38;-4.70;99.90
21928;DHT22;11128;51.096;17.190;2022-11-20T23:37:39;-4.80;99.90
21928;DHT22;11128;51.096;17.190;2022-11-20T23:42:41;-4.70;99.90
21928;DHT22;11128;51.096;17.190;2022-11-20T23:48:03;-4.70;99.90
21928;DHT22;11128;51.096;17.190;2022-11-20T23:53:04;-4.80;99.90
21928;DHT22;11128;51.096;17.190;2022-11-20T23:58:06;-4.30;99.90
